Dream Angel — 3EEV — position and weather

sailwx.info

Track history (hours):
 
Tides and Currents Weather Stations Pressure Air Temp Water Temp Dewpoint Dewpoint Depression Visibility Wind Speed Wind Dir Waves Ship Positions

Dream Angel

Last reported at 2015-Jun-12 20:17 UTC. Time now 2015-Jul-04 10:10 UTC.
Position N 34°50' E 128°47'.
Warning: this ship's position is 21 days out of date.

Length 187 m; draft 6.8 m.

Type: Ship. MMSI: 371820000.

Date/timePositionNaut miles runAvg speedWind from/ knotsBaromVisibWave heightAir tempDewpointWater temp
2015-Jun-12 20:17N 34°50' E 128°47'0 0.0
2015-Jun-12 15:32N 34°50' E 128°47'  
2015-Jun-05 12:26N 34°45' E 139°33'1516.7
2015-Jun-05 11:33N 34°59' E 139°39'1514.7
2015-Jun-05 10:34N 35°12' E 139°46'1212.2
2015-Jun-05 09:33N 35°24' E 139°42'3 3.3
2015-Jun-05 08:31N 35°27' E 139°41'0 0.0
2015-Jun-05 07:31N 35°27' E 139°41'0 0.0
2015-Jun-05 06:31N 35°27' E 139°41'0 0.0
2015-Jun-05 05:31N 35°27' E 139°41'0 0.0
2015-Jun-05 04:31N 35°27' E 139°41'0 0.0
2015-Jun-05 03:31N 35°27' E 139°41'0 0.0
2015-Jun-05 02:31N 35°27' E 139°41'0 0.0
2015-Jun-05 01:31N 35°27' E 139°41'1 0.9
2015-Jun-05 00:34N 35°27' E 139°42'8 7.8
2015-Jun-04 23:34N 35°19' E 139°43'1110.7
2015-Jun-04 22:33N 35°09' E 139°46'9 9.1
2015-Jun-04 21:33N 35°00' E 139°42'9 9.0
2015-Jun-04 20:33N 34°52' E 139°46'1514.5
2015-Jun-04 19:33N 34°53' E 140°04'1616.1
2015-Jun-04 18:32N 35°00' E 140°21'1716.9
2015-Jun-04 17:33N 35°08' E 140°39'2117.8
2015-Jun-04 16:23N 35°16' E 141°03'  
Track history (hours):
 
Tides and Currents Weather Stations Pressure Air Temp Water Temp Dewpoint Dewpoint Depression Visibility Wind Speed Wind Dir Waves Ship Positions

Dream Angel

Last reported at 2015-Jun-12 20:17 UTC. Time now 2015-Jul-04 10:10 UTC.
Position N 34°50' E 128°47'.
Warning: this ship's position is 21 days out of date.

Length 187 m; draft 6.8 m.

Type: Ship. MMSI: 371820000.

Date/timePositionNaut miles runAvg speedWind from/ knotsBaromVisibWave heightAir tempDewpointWater temp
2015-Jun-12 20:17N 34°50' E 128°47'0 0.0
2015-Jun-12 15:32N 34°50' E 128°47'  
2015-Jun-05 12:26N 34°45' E 139°33'1516.7
2015-Jun-05 11:33N 34°59' E 139°39'1514.7
2015-Jun-05 10:34N 35°12' E 139°46'1212.2
2015-Jun-05 09:33N 35°24' E 139°42'3 3.3
2015-Jun-05 08:31N 35°27' E 139°41'0 0.0
2015-Jun-05 07:31N 35°27' E 139°41'0 0.0
2015-Jun-05 06:31N 35°27' E 139°41'0 0.0
2015-Jun-05 05:31N 35°27' E 139°41'0 0.0
2015-Jun-05 04:31N 35°27' E 139°41'0 0.0
2015-Jun-05 03:31N 35°27' E 139°41'0 0.0
2015-Jun-05 02:31N 35°27' E 139°41'0 0.0
2015-Jun-05 01:31N 35°27' E 139°41'1 0.9
2015-Jun-05 00:34N 35°27' E 139°42'8 7.8
2015-Jun-04 23:34N 35°19' E 139°43'1110.7
2015-Jun-04 22:33N 35°09' E 139°46'9 9.1
2015-Jun-04 21:33N 35°00' E 139°42'9 9.0
2015-Jun-04 20:33N 34°52' E 139°46'1514.5
2015-Jun-04 19:33N 34°53' E 140°04'1616.1
2015-Jun-04 18:32N 35°00' E 140°21'1716.9
2015-Jun-04 17:33N 35°08' E 140°39'2117.8
2015-Jun-04 16:23N 35°16' E 141°03'  

Dump ship's entire track history